sensor_id;sensor_type;location;lat;lon;timestamp;temperature;humidity
68257;DHT22;55069;51.568;4.656;2023-07-22T00:00:15;17.45;73.57
68257;DHT22;55069;51.568;4.656;2023-07-22T00:02:42;17.47;72.70
68257;DHT22;55069;51.568;4.656;2023-07-22T00:05:08;17.44;74.25
68257;DHT22;55069;51.568;4.656;2023-07-22T00:07:36;17.47;73.47
68257;DHT22;55069;51.568;4.656;2023-07-22T00:10:01;17.41;74.53
68257;DHT22;55069;51.568;4.656;2023-07-22T00:12:27;17.37;74.16
68257;DHT22;55069;51.568;4.656;2023-07-22T00:14:53;17.37;74.66
68257;DHT22;55069;51.568;4.656;2023-07-22T00:17:18;17.30;75.28
68257;DHT22;55069;51.568;4.656;2023-07-22T00:19:44;17.27;74.24
68257;DHT22;55069;51.568;4.656;2023-07-22T00:22:09;17.13;75.80
68257;DHT22;55069;51.568;4.656;2023-07-22T00:24:35;17.06;75.74
68257;DHT22;55069;51.568;4.656;2023-07-22T00:27:01;16.96;74.77
68257;DHT22;55069;51.568;4.656;2023-07-22T00:29:26;17.00;75.01
68257;DHT22;55069;51.568;4.656;2023-07-22T00:31:52;16.90;76.03
68257;DHT22;55069;51.568;4.656;2023-07-22T00:34:17;16.82;75.77
68257;DHT22;55069;51.568;4.656;2023-07-22T00:36:43;16.80;75.33
68257;DHT22;55069;51.568;4.656;2023-07-22T00:39:09;16.76;75.66
68257;DHT22;55069;51.568;4.656;2023-07-22T00:41:36;16.79;75.43
68257;DHT22;55069;51.568;4.656;2023-07-22T00:44:02;16.70;76.16
68257;DHT22;55069;51.568;4.656;2023-07-22T00:46:27;16.61;76.83
68257;DHT22;55069;51.568;4.656;2023-07-22T00:48:53;16.53;77.15
68257;DHT22;55069;51.568;4.656;2023-07-22T00:51:19;16.42;77.73
68257;DHT22;55069;51.568;4.656;2023-07-22T00:53:46;16.49;75.91
68257;DHT22;55069;51.568;4.656;2023-07-22T00:56:11;16.51;75.62
68257;DHT22;55069;51.568;4.656;2023-07-22T00:58:37;16.42;75.90
68257;DHT22;55069;51.568;4.656;2023-07-22T01:01:02;16.44;75.28
68257;DHT22;55069;51.568;4.656;2023-07-22T01:03:28;16.45;76.00
68257;DHT22;55069;51.568;4.656;2023-07-22T01:05:54;16.48;75.65
68257;DHT22;55069;51.568;4.656;2023-07-22T01:08:20;16.49;76.18
68257;DHT22;55069;51.568;4.656;2023-07-22T01:10:46;16.48;75.48
68257;DHT22;55069;51.568;4.656;2023-07-22T01:13:11;16.51;75.19
68257;DHT22;55069;51.568;4.656;2023-07-22T01:15:37;16.53;75.43
68257;DHT22;55069;51.568;4.656;2023-07-22T01:18:03;16.52;75.68
68257;DHT22;55069;51.568;4.656;2023-07-22T01:20:29;16.53;75.09
68257;DHT22;55069;51.568;4.656;2023-07-22T01:22:55;16.55;76.08
68257;DHT22;55069;51.568;4.656;2023-07-22T01:25:22;16.49;74.90
68257;DHT22;55069;51.568;4.656;2023-07-22T01:27:48;16.51;75.32
68257;DHT22;55069;51.568;4.656;2023-07-22T01:30:15;16.40;75.84
68257;DHT22;55069;51.568;4.656;2023-07-22T01:32:40;16.35;76.20
68257;DHT22;55069;51.568;4.656;2023-07-22T01:35:07;16.25;76.16
68257;DHT22;55069;51.568;4.656;2023-07-22T01:37:33;16.18;75.08
68257;DHT22;55069;51.568;4.656;2023-07-22T01:39:59;16.11;75.73
68257;DHT22;55069;51.568;4.656;2023-07-22T01:42:25;16.04;76.17
68257;DHT22;55069;51.568;4.656;2023-07-22T01:44:50;15.96;76.23
68257;DHT22;55069;51.568;4.656;2023-07-22T01:47:16;15.90;76.83
68257;DHT22;55069;51.568;4.656;2023-07-22T01:49:41;15.86;76.75
68257;DHT22;55069;51.568;4.656;2023-07-22T01:52:07;15.83;76.53
68257;DHT22;55069;51.568;4.656;2023-07-22T01:54:33;15.83;76.49
68257;DHT22;55069;51.568;4.656;2023-07-22T01:56:59;15.74;76.83
68257;DHT22;55069;51.568;4.656;2023-07-22T01:59:25;15.76;77.11
68257;DHT22;55069;51.568;4.656;2023-07-22T02:01:50;15.79;77.42
68257;DHT22;55069;51.568;4.656;2023-07-22T02:04:17;15.70;76.39
68257;DHT22;55069;51.568;4.656;2023-07-22T02:06:42;15.66;77.67
68257;DHT22;55069;51.568;4.656;2023-07-22T02:09:08;15.60;76.87
68257;DHT22;55069;51.568;4.656;2023-07-22T02:11:37;15.59;76.88
68257;DHT22;55069;51.568;4.656;2023-07-22T02:14:03;15.57;76.51
68257;DHT22;55069;51.568;4.656;2023-07-22T02:16:34;15.50;77.37
68257;DHT22;55069;51.568;4.656;2023-07-22T02:19:00;15.45;77.33
68257;DHT22;55069;51.568;4.656;2023-07-22T02:21:26;15.46;77.42
68257;DHT22;55069;51.568;4.656;2023-07-22T02:23:51;15.43;77.74
68257;DHT22;55069;51.568;4.656;2023-07-22T02:26:17;15.35;77.56
68257;DHT22;55069;51.568;4.656;2023-07-22T02:28:42;15.32;77.76
68257;DHT22;55069;51.568;4.656;2023-07-22T02:31:08;15.31;78.04
68257;DHT22;55069;51.568;4.656;2023-07-22T02:33:34;15.27;78.51
68257;DHT22;55069;51.568;4.656;2023-07-22T02:35:59;15.21;78.83
68257;DHT22;55069;51.568;4.656;2023-07-22T02:38:25;15.14;78.89
68257;DHT22;55069;51.568;4.656;2023-07-22T02:40:50;15.09;78.70
68257;DHT22;55069;51.568;4.656;2023-07-22T02:43:16;15.11;78.70
68257;DHT22;55069;51.568;4.656;2023-07-22T02:45:42;15.09;79.31
68257;DHT22;55069;51.568;4.656;2023-07-22T02:48:07;15.09;79.17
68257;DHT22;55069;51.568;4.656;2023-07-22T02:50:34;15.04;79.82
68257;DHT22;55069;51.568;4.656;2023-07-22T02:52:59;14.95;80.20
68257;DHT22;55069;51.568;4.656;2023-07-22T02:55:25;14.94;80.54
68257;DHT22;55069;51.568;4.656;2023-07-22T02:57:51;14.92;80.67
68257;DHT22;55069;51.568;4.656;2023-07-22T03:00:18;14.95;80.63
68257;DHT22;55069;51.568;4.656;2023-07-22T03:02:52;14.91;80.01
68257;DHT22;55069;51.568;4.656;2023-07-22T03:05:18;14.87;81.12
68257;DHT22;55069;51.568;4.656;2023-07-22T03:07:44;14.81;80.77
68257;DHT22;55069;51.568;4.656;2023-07-22T03:10:10;14.74;80.99
68257;DHT22;55069;51.568;4.656;2023-07-22T03:12:36;14.71;80.09
68257;DHT22;55069;51.568;4.656;2023-07-22T03:15:02;14.73;80.44
68257;DHT22;55069;51.568;4.656;2023-07-22T03:17:34;14.71;80.61
68257;DHT22;55069;51.568;4.656;2023-07-22T03:20:01;14.76;81.43
68257;DHT22;55069;51.568;4.656;2023-07-22T03:22:27;14.79;80.81
68257;DHT22;55069;51.568;4.656;2023-07-22T03:24:52;14.79;80.36
68257;DHT22;55069;51.568;4.656;2023-07-22T03:27:18;14.70;79.98
68257;DHT22;55069;51.568;4.656;2023-07-22T03:29:43;14.67;80.56
68257;DHT22;55069;51.568;4.656;2023-07-22T03:32:09;14.64;80.98
68257;DHT22;55069;51.568;4.656;2023-07-22T03:34:35;14.60;81.13
68257;DHT22;55069;51.568;4.656;2023-07-22T03:37:00;14.53;80.95
68257;DHT22;55069;51.568;4.656;2023-07-22T03:39:26;14.57;81.23
68257;DHT22;55069;51.568;4.656;2023-07-22T03:41:52;14.53;81.87
68257;DHT22;55069;51.568;4.656;2023-07-22T03:44:17;14.47;81.69
68257;DHT22;55069;51.568;4.656;2023-07-22T03:46:43;14.44;81.88
68257;DHT22;55069;51.568;4.656;2023-07-22T03:49:08;14.40;81.66
68257;DHT22;55069;51.568;4.656;2023-07-22T03:51:34;14.40;81.98
68257;DHT22;55069;51.568;4.656;2023-07-22T03:54:00;14.36;82.59
68257;DHT22;55069;51.568;4.656;2023-07-22T03:56:26;14.30;81.83
68257;DHT22;55069;51.568;4.656;2023-07-22T03:58:51;14.32;81.36
68257;DHT22;55069;51.568;4.656;2023-07-22T04:01:17;14.33;81.73
68257;DHT22;55069;51.568;4.656;2023-07-22T04:03:43;14.34;81.79
68257;DHT22;55069;51.568;4.656;2023-07-22T04:06:09;14.34;81.44
68257;DHT22;55069;51.568;4.656;2023-07-22T04:08:34;14.36;82.00
68257;DHT22;55069;51.568;4.656;2023-07-22T04:11:00;14.39;82.53
68257;DHT22;55069;51.568;4.656;2023-07-22T04:13:26;14.39;81.94
68257;DHT22;55069;51.568;4.656;2023-07-22T04:15:52;14.42;82.07
68257;DHT22;55069;51.568;4.656;2023-07-22T04:18:19;14.49;82.55
68257;DHT22;55069;51.568;4.656;2023-07-22T04:20:46;14.53;81.89
68257;DHT22;55069;51.568;4.656;2023-07-22T04:23:13;14.60;81.34
68257;DHT22;55069;51.568;4.656;2023-07-22T04:25:40;14.60;81.24
68257;DHT22;55069;51.568;4.656;2023-07-22T04:28:06;14.63;80.98
68257;DHT22;55069;51.568;4.656;2023-07-22T04:30:32;14.73;80.61
68257;DHT22;55069;51.568;4.656;2023-07-22T04:32:58;14.71;81.86
68257;DHT22;55069;51.568;4.656;2023-07-22T04:35:24;14.71;80.65
68257;DHT22;55069;51.568;4.656;2023-07-22T04:37:49;14.74;80.15
68257;DHT22;55069;51.568;4.656;2023-07-22T04:40:14;14.80;80.97
68257;DHT22;55069;51.568;4.656;2023-07-22T04:42:42;14.79;80.54
68257;DHT22;55069;51.568;4.656;2023-07-22T04:45:09;14.79;80.82
68257;DHT22;55069;51.568;4.656;2023-07-22T04:47:35;14.80;80.85
68257;DHT22;55069;51.568;4.656;2023-07-22T04:50:02;14.80;80.61
68257;DHT22;55069;51.568;4.656;2023-07-22T04:52:29;14.90;80.34
68257;DHT22;55069;51.568;4.656;2023-07-22T04:54:54;14.91;79.33
68257;DHT22;55069;51.568;4.656;2023-07-22T04:57:20;14.94;79.90
68257;DHT22;55069;51.568;4.656;2023-07-22T04:59:46;14.97;79.64
68257;DHT22;55069;51.568;4.656;2023-07-22T05:02:12;14.97;80.56
68257;DHT22;55069;51.568;4.656;2023-07-22T05:04:38;15.02;80.07
68257;DHT22;55069;51.568;4.656;2023-07-22T05:07:03;15.04;80.67
68257;DHT22;55069;51.568;4.656;2023-07-22T05:09:29;15.17;80.52
68257;DHT22;55069;51.568;4.656;2023-07-22T05:11:55;15.22;79.71
68257;DHT22;55069;51.568;4.656;2023-07-22T05:14:20;15.31;80.50
68257;DHT22;55069;51.568;4.656;2023-07-22T05:16:46;15.46;79.13
68257;DHT22;55069;51.568;4.656;2023-07-22T05:19:11;15.63;79.55
68257;DHT22;55069;51.568;4.656;2023-07-22T05:21:37;15.77;78.47
68257;DHT22;55069;51.568;4.656;2023-07-22T05:24:02;15.96;77.70
68257;DHT22;55069;51.568;4.656;2023-07-22T05:26:28;16.10;78.21
68257;DHT22;55069;51.568;4.656;2023-07-22T05:28:53;16.18;76.61
68257;DHT22;55069;51.568;4.656;2023-07-22T05:31:19;16.28;77.85
68257;DHT22;55069;51.568;4.656;2023-07-22T05:33:44;16.31;77.09
68257;DHT22;55069;51.568;4.656;2023-07-22T05:36:10;16.44;77.31
68257;DHT22;55069;51.568;4.656;2023-07-22T05:38:35;16.45;77.62
68257;DHT22;55069;51.568;4.656;2023-07-22T05:41:01;16.47;77.32
68257;DHT22;55069;51.568;4.656;2023-07-22T05:43:26;16.52;76.83
68257;DHT22;55069;51.568;4.656;2023-07-22T05:45:52;16.56;76.66
68257;DHT22;55069;51.568;4.656;2023-07-22T05:48:18;16.59;77.00
68257;DHT22;55069;51.568;4.656;2023-07-22T05:50:43;16.65;78.36
68257;DHT22;55069;51.568;4.656;2023-07-22T05:53:09;16.61;76.59
68257;DHT22;55069;51.568;4.656;2023-07-22T05:55:34;16.59;78.16
68257;DHT22;55069;51.568;4.656;2023-07-22T05:58:02;16.56;77.62
68257;DHT22;55069;51.568;4.656;2023-07-22T06:00:32;16.62;76.21
68257;DHT22;55069;51.568;4.656;2023-07-22T06:02:58;16.69;77.93
68257;DHT22;55069;51.568;4.656;2023-07-22T06:05:23;16.73;77.12
68257;DHT22;55069;51.568;4.656;2023-07-22T06:07:49;16.82;77.49
68257;DHT22;55069;51.568;4.656;2023-07-22T06:10:14;16.93;76.61
68257;DHT22;55069;51.568;4.656;2023-07-22T06:12:40;16.97;76.24
68257;DHT22;55069;51.568;4.656;2023-07-22T06:15:07;17.07;76.36
68257;DHT22;55069;51.568;4.656;2023-07-22T06:17:33;17.24;76.38
68257;DHT22;55069;51.568;4.656;2023-07-22T06:19:58;17.23;75.89
68257;DHT22;55069;51.568;4.656;2023-07-22T06:22:24;17.37;74.85
68257;DHT22;55069;51.568;4.656;2023-07-22T06:24:49;17.35;75.84
68257;DHT22;55069;51.568;4.656;2023-07-22T06:27:15;17.45;75.95
68257;DHT22;55069;51.568;4.656;2023-07-22T06:29:40;17.59;75.21
68257;DHT22;55069;51.568;4.656;2023-07-22T06:32:06;17.79;75.00
68257;DHT22;55069;51.568;4.656;2023-07-22T06:34:32;17.97;74.29
68257;DHT22;55069;51.568;4.656;2023-07-22T06:36:57;18.02;74.59
68257;DHT22;55069;51.568;4.656;2023-07-22T06:39:23;18.12;74.66
68257;DHT22;55069;51.568;4.656;2023-07-22T06:41:48;18.16;74.33
68257;DHT22;55069;51.568;4.656;2023-07-22T06:44:14;18.16;73.49
68257;DHT22;55069;51.568;4.656;2023-07-22T06:46:39;18.13;73.89
68257;DHT22;55069;51.568;4.656;2023-07-22T06:49:06;18.16;73.92
68257;DHT22;55069;51.568;4.656;2023-07-22T06:51:34;18.13;72.92
68257;DHT22;55069;51.568;4.656;2023-07-22T06:53:59;18.10;74.49
68257;DHT22;55069;51.568;4.656;2023-07-22T06:56:25;17.99;73.67
68257;DHT22;55069;51.568;4.656;2023-07-22T06:58:51;17.97;75.06
68257;DHT22;55069;51.568;4.656;2023-07-22T07:01:17;18.03;74.75
68257;DHT22;55069;51.568;4.656;2023-07-22T07:03:42;18.18;75.07
68257;DHT22;55069;51.568;4.656;2023-07-22T07:06:08;18.40;74.78
68257;DHT22;55069;51.568;4.656;2023-07-22T07:08:33;18.64;73.06
68257;DHT22;55069;51.568;4.656;2023-07-22T07:10:59;18.92;72.78
68257;DHT22;55069;51.568;4.656;2023-07-22T07:13:26;19.16;72.61
68257;DHT22;55069;51.568;4.656;2023-07-22T07:15:52;19.24;70.34
68257;DHT22;55069;51.568;4.656;2023-07-22T07:18:17;19.31;70.89
68257;DHT22;55069;51.568;4.656;2023-07-22T07:20:43;19.30;71.05
68257;DHT22;55069;51.568;4.656;2023-07-22T07:23:09;19.22;71.03
68257;DHT22;55069;51.568;4.656;2023-07-22T07:25:35;19.24;71.84
68257;DHT22;55069;51.568;4.656;2023-07-22T07:28:00;19.31;71.11
68257;DHT22;55069;51.568;4.656;2023-07-22T07:30:26;19.05;72.11
68257;DHT22;55069;51.568;4.656;2023-07-22T07:32:51;19.23;71.29
68257;DHT22;55069;51.568;4.656;2023-07-22T07:35:17;19.16;71.45
68257;DHT22;55069;51.568;4.656;2023-07-22T07:37:42;19.43;70.80
68257;DHT22;55069;51.568;4.656;2023-07-22T07:40:08;19.70;70.42
68257;DHT22;55069;51.568;4.656;2023-07-22T07:42:34;19.85;69.82
68257;DHT22;55069;51.568;4.656;2023-07-22T07:44:59;20.15;69.81
68257;DHT22;55069;51.568;4.656;2023-07-22T07:47:25;20.37;67.05
68257;DHT22;55069;51.568;4.656;2023-07-22T07:49:50;20.13;68.10
68257;DHT22;55069;51.568;4.656;2023-07-22T07:52:16;20.47;68.60
68257;DHT22;55069;51.568;4.656;2023-07-22T07:54:41;20.71;67.09
68257;DHT22;55069;51.568;4.656;2023-07-22T07:57:07;20.77;67.88
68257;DHT22;55069;51.568;4.656;2023-07-22T07:59:32;20.92;66.22
68257;DHT22;55069;51.568;4.656;2023-07-22T08:01:58;20.91;66.64
68257;DHT22;55069;51.568;4.656;2023-07-22T08:04:23;21.01;66.38
68257;DHT22;55069;51.568;4.656;2023-07-22T08:06:49;21.14;65.06
68257;DHT22;55069;51.568;4.656;2023-07-22T08:09:15;20.88;66.30
68257;DHT22;55069;51.568;4.656;2023-07-22T08:11:45;21.05;66.69
68257;DHT22;55069;51.568;4.656;2023-07-22T08:14:10;21.08;65.49
68257;DHT22;55069;51.568;4.656;2023-07-22T08:16:36;21.15;65.48
68257;DHT22;55069;51.568;4.656;2023-07-22T08:19:02;21.24;66.01
68257;DHT22;55069;51.568;4.656;2023-07-22T08:21:27;21.05;65.48
68257;DHT22;55069;51.568;4.656;2023-07-22T08:23:53;21.27;65.93
68257;DHT22;55069;51.568;4.656;2023-07-22T08:26:18;21.36;65.14
68257;DHT22;55069;51.568;4.656;2023-07-22T08:28:49;21.36;64.97
68257;DHT22;55069;51.568;4.656;2023-07-22T08:31:14;21.05;65.06
68257;DHT22;55069;51.568;4.656;2023-07-22T08:33:40;20.98;64.63
68257;DHT22;55069;51.568;4.656;2023-07-22T08:36:06;21.09;64.21
68257;DHT22;55069;51.568;4.656;2023-07-22T08:38:31;21.24;63.98
68257;DHT22;55069;51.568;4.656;2023-07-22T08:40:57;21.24;64.02
68257;DHT22;55069;51.568;4.656;2023-07-22T08:43:23;21.19;63.36
68257;DHT22;55069;51.568;4.656;2023-07-22T08:45:51;21.04;64.22
68257;DHT22;55069;51.568;4.656;2023-07-22T08:48:18;21.05;63.96
68257;DHT22;55069;51.568;4.656;2023-07-22T08:51:15;21.00;64.55
68257;DHT22;55069;51.568;4.656;2023-07-22T08:53:43;21.39;64.69
68257;DHT22;55069;51.568;4.656;2023-07-22T08:56:09;21.27;63.41
68257;DHT22;55069;51.568;4.656;2023-07-22T08:58:36;21.35;63.16
68257;DHT22;55069;51.568;4.656;2023-07-22T09:01:02;21.52;63.27
68257;DHT22;55069;51.568;4.656;2023-07-22T09:03:28;21.28;63.96
68257;DHT22;55069;51.568;4.656;2023-07-22T09:05:54;21.28;63.77
68257;DHT22;55069;51.568;4.656;2023-07-22T09:08:20;21.25;64.14
68257;DHT22;55069;51.568;4.656;2023-07-22T09:10:46;21.24;64.38
68257;DHT22;55069;51.568;4.656;2023-07-22T09:13:13;21.56;64.16
68257;DHT22;55069;51.568;4.656;2023-07-22T09:15:40;21.63;64.52
68257;DHT22;55069;51.568;4.656;2023-07-22T09:18:05;21.43;63.79
68257;DHT22;55069;51.568;4.656;2023-07-22T09:20:32;21.48;64.44
68257;DHT22;55069;51.568;4.656;2023-07-22T09:22:59;21.56;64.58
68257;DHT22;55069;51.568;4.656;2023-07-22T09:25:27;21.87;64.50
68257;DHT22;55069;51.568;4.656;2023-07-22T09:27:54;22.04;64.37
68257;DHT22;55069;51.568;4.656;2023-07-22T09:30:32;22.35;63.43
68257;DHT22;55069;51.568;4.656;2023-07-22T09:33:03;22.00;62.98
68257;DHT22;55069;51.568;4.656;2023-07-22T09:35:46;22.24;63.48
68257;DHT22;55069;51.568;4.656;2023-07-22T09:38:12;22.27;62.55
68257;DHT22;55069;51.568;4.656;2023-07-22T09:40:42;21.73;62.74
68257;DHT22;55069;51.568;4.656;2023-07-22T09:43:10;21.49;63.49
68257;DHT22;55069;51.568;4.656;2023-07-22T09:45:35;21.34;63.69
68257;DHT22;55069;51.568;4.656;2023-07-22T09:48:03;21.12;64.27
68257;DHT22;55069;51.568;4.656;2023-07-22T09:50:29;21.08;64.71
68257;DHT22;55069;51.568;4.656;2023-07-22T09:52:56;20.50;65.60
68257;DHT22;55069;51.568;4.656;2023-07-22T09:55:24;20.42;66.45
68257;DHT22;55069;51.568;4.656;2023-07-22T09:57:55;20.54;65.78
68257;DHT22;55069;51.568;4.656;2023-07-22T10:00:24;20.61;65.53
68257;DHT22;55069;51.568;4.656;2023-07-22T10:02:52;20.43;65.40
68257;DHT22;55069;51.568;4.656;2023-07-22T10:05:19;20.84;64.78
68257;DHT22;55069;51.568;4.656;2023-07-22T10:07:47;21.19;64.56
68257;DHT22;55069;51.568;4.656;2023-07-22T10:10:16;21.80;63.69
68257;DHT22;55069;51.568;4.656;2023-07-22T10:12:43;21.75;62.80
68257;DHT22;55069;51.568;4.656;2023-07-22T10:15:10;22.10;61.69
68257;DHT22;55069;51.568;4.656;2023-07-22T10:17:36;22.38;61.89
68257;DHT22;55069;51.568;4.656;2023-07-22T10:20:02;22.53;60.77
68257;DHT22;55069;51.568;4.656;2023-07-22T10:22:37;22.99;60.03
68257;DHT22;55069;51.568;4.656;2023-07-22T10:25:06;23.00;57.95
68257;DHT22;55069;51.568;4.656;2023-07-22T10:27:34;23.24;57.19
68257;DHT22;55069;51.568;4.656;2023-07-22T10:30:02;22.96;56.37
68257;DHT22;55069;51.568;4.656;2023-07-22T10:32:39;22.59;58.55
68257;DHT22;55069;51.568;4.656;2023-07-22T10:35:08;22.48;59.01
68257;DHT22;55069;51.568;4.656;2023-07-22T10:37:45;22.10;59.52
68257;DHT22;55069;51.568;4.656;2023-07-22T10:43:00;21.57;60.39
68257;DHT22;55069;51.568;4.656;2023-07-22T10:48:43;20.91;62.03
68257;DHT22;55069;51.568;4.656;2023-07-22T10:51:13;20.64;62.74
68257;DHT22;55069;51.568;4.656;2023-07-22T10:53:45;20.32;62.86
68257;DHT22;55069;51.568;4.656;2023-07-22T10:56:15;20.53;63.62
68257;DHT22;55069;51.568;4.656;2023-07-22T11:12:00;21.52;61.11
68257;DHT22;55069;51.568;4.656;2023-07-22T11:14:28;21.56;61.02
68257;DHT22;55069;51.568;4.656;2023-07-22T11:16:56;21.42;60.45
68257;DHT22;55069;51.568;4.656;2023-07-22T11:19:23;21.66;61.07
68257;DHT22;55069;51.568;4.656;2023-07-22T11:21:50;21.36;59.03
68257;DHT22;55069;51.568;4.656;2023-07-22T11:24:16;21.76;60.23
68257;DHT22;55069;51.568;4.656;2023-07-22T11:26:43;21.75;58.90
68257;DHT22;55069;51.568;4.656;2023-07-22T11:29:09;21.36;58.45
68257;DHT22;55069;51.568;4.656;2023-07-22T11:31:40;21.28;59.34
68257;DHT22;55069;51.568;4.656;2023-07-22T11:34:14;21.42;59.37
68257;DHT22;55069;51.568;4.656;2023-07-22T11:36:40;21.53;59.01
68257;DHT22;55069;51.568;4.656;2023-07-22T11:39:07;21.55;57.99
68257;DHT22;55069;51.568;4.656;2023-07-22T11:41:34;21.75;58.80
68257;DHT22;55069;51.568;4.656;2023-07-22T11:44:01;21.98;58.29
68257;DHT22;55069;51.568;4.656;2023-07-22T11:46:27;22.11;57.67
68257;DHT22;55069;51.568;4.656;2023-07-22T11:48:54;22.05;58.10
68257;DHT22;55069;51.568;4.656;2023-07-22T11:51:22;21.75;57.76
68257;DHT22;55069;51.568;4.656;2023-07-22T11:53:49;21.67;58.60
68257;DHT22;55069;51.568;4.656;2023-07-22T11:56:26;21.75;58.66
68257;DHT22;55069;51.568;4.656;2023-07-22T11:58:53;21.80;58.28
68257;DHT22;55069;51.568;4.656;2023-07-22T12:01:19;21.86;57.59
68257;DHT22;55069;51.568;4.656;2023-07-22T12:03:45;21.52;57.80
68257;DHT22;55069;51.568;4.656;2023-07-22T12:06:11;21.45;57.91
68257;DHT22;55069;51.568;4.656;2023-07-22T12:08:44;21.24;59.42
68257;DHT22;55069;51.568;4.656;2023-07-22T12:11:23;21.02;59.27
68257;DHT22;55069;51.568;4.656;2023-07-22T12:14:10;20.53;60.34
68257;DHT22;55069;51.568;4.656;2023-07-22T12:16:38;20.67;60.36
68257;DHT22;55069;51.568;4.656;2023-07-22T12:19:04;20.59;60.80
68257;DHT22;55069;51.568;4.656;2023-07-22T12:21:30;20.76;60.57
68257;DHT22;55069;51.568;4.656;2023-07-22T12:23:56;20.71;60.77
68257;DHT22;55069;51.568;4.656;2023-07-22T12:26:22;20.57;61.45
68257;DHT22;55069;51.568;4.656;2023-07-22T12:28:48;20.56;61.88
68257;DHT22;55069;51.568;4.656;2023-07-22T12:31:13;20.21;64.32
68257;DHT22;55069;51.568;4.656;2023-07-22T12:33:39;20.08;65.94
68257;DHT22;55069;51.568;4.656;2023-07-22T12:36:04;19.56;67.04
68257;DHT22;55069;51.568;4.656;2023-07-22T12:38:30;20.02;66.05
68257;DHT22;55069;51.568;4.656;2023-07-22T12:40:56;20.22;66.22
68257;DHT22;55069;51.568;4.656;2023-07-22T12:43:22;20.61;65.06
68257;DHT22;55069;51.568;4.656;2023-07-22T12:45:47;21.19;64.31
68257;DHT22;55069;51.568;4.656;2023-07-22T12:48:13;21.48;63.26
68257;DHT22;55069;51.568;4.656;2023-07-22T12:50:38;21.69;61.53
68257;DHT22;55069;51.568;4.656;2023-07-22T12:53:04;21.19;63.72
68257;DHT22;55069;51.568;4.656;2023-07-22T12:55:29;21.32;63.73
68257;DHT22;55069;51.568;4.656;2023-07-22T12:57:55;21.14;64.01
68257;DHT22;55069;51.568;4.656;2023-07-22T13:00:21;20.77;64.77
68257;DHT22;55069;51.568;4.656;2023-07-22T13:02:47;20.60;65.44
68257;DHT22;55069;51.568;4.656;2023-07-22T13:05:13;20.74;65.67
68257;DHT22;55069;51.568;4.656;2023-07-22T13:07:39;21.19;63.85
68257;DHT22;55069;51.568;4.656;2023-07-22T13:10:04;20.85;64.65
68257;DHT22;55069;51.568;4.656;2023-07-22T13:12:34;21.36;63.62
68257;DHT22;55069;51.568;4.656;2023-07-22T13:15:00;21.21;63.60
68257;DHT22;55069;51.568;4.656;2023-07-22T13:17:25;21.93;61.65
68257;DHT22;55069;51.568;4.656;2023-07-22T13:19:51;21.49;62.47
68257;DHT22;55069;51.568;4.656;2023-07-22T13:22:16;21.73;61.73
68257;DHT22;55069;51.568;4.656;2023-07-22T13:24:42;21.83;61.82
68257;DHT22;55069;51.568;4.656;2023-07-22T13:27:07;21.89;60.19
68257;DHT22;55069;51.568;4.656;2023-07-22T13:29:33;22.00;61.57
68257;DHT22;55069;51.568;4.656;2023-07-22T13:31:59;21.49;61.18
68257;DHT22;55069;51.568;4.656;2023-07-22T13:34:24;21.15;63.00
68257;DHT22;55069;51.568;4.656;2023-07-22T13:36:51;20.87;63.11
68257;DHT22;55069;51.568;4.656;2023-07-22T13:39:16;21.12;62.10
68257;DHT22;55069;51.568;4.656;2023-07-22T13:41:42;21.09;62.68
68257;DHT22;55069;51.568;4.656;2023-07-22T13:44:07;21.29;61.71
68257;DHT22;55069;51.568;4.656;2023-07-22T13:46:33;20.95;61.52
68257;DHT22;55069;51.568;4.656;2023-07-22T13:48:58;21.17;61.63
68257;DHT22;55069;51.568;4.656;2023-07-22T13:51:24;21.17;61.22
68257;DHT22;55069;51.568;4.656;2023-07-22T13:53:49;21.05;61.98
68257;DHT22;55069;51.568;4.656;2023-07-22T13:56:17;20.97;62.25
68257;DHT22;55069;51.568;4.656;2023-07-22T13:58:43;21.00;62.21
68257;DHT22;55069;51.568;4.656;2023-07-22T14:01:09;20.71;63.30
68257;DHT22;55069;51.568;4.656;2023-07-22T14:03:34;20.56;63.81
68257;DHT22;55069;51.568;4.656;2023-07-22T14:06:00;20.47;64.66
68257;DHT22;55069;51.568;4.656;2023-07-22T14:08:25;20.28;65.61
68257;DHT22;55069;51.568;4.656;2023-07-22T14:10:51;20.30;65.31
68257;DHT22;55069;51.568;4.656;2023-07-22T14:13:16;20.33;64.79
68257;DHT22;55069;51.568;4.656;2023-07-22T14:15:42;20.60;64.51
68257;DHT22;55069;51.568;4.656;2023-07-22T14:18:07;20.74;63.49
68257;DHT22;55069;51.568;4.656;2023-07-22T14:20:33;21.09;63.36
68257;DHT22;55069;51.568;4.656;2023-07-22T14:22:58;21.29;62.42
68257;DHT22;55069;51.568;4.656;2023-07-22T14:25:24;21.29;61.55
68257;DHT22;55069;51.568;4.656;2023-07-22T14:27:49;21.21;61.48
68257;DHT22;55069;51.568;4.656;2023-07-22T14:30:16;21.42;61.41
68257;DHT22;55069;51.568;4.656;2023-07-22T14:32:41;21.67;60.34
68257;DHT22;55069;51.568;4.656;2023-07-22T14:35:07;21.92;60.47
68257;DHT22;55069;51.568;4.656;2023-07-22T14:37:33;21.66;58.71
68257;DHT22;55069;51.568;4.656;2023-07-22T14:39:59;21.48;57.85
68257;DHT22;55069;51.568;4.656;2023-07-22T14:42:24;21.50;58.27
68257;DHT22;55069;51.568;4.656;2023-07-22T14:44:50;21.34;58.50
68257;DHT22;55069;51.568;4.656;2023-07-22T14:47:15;21.63;58.60
68257;DHT22;55069;51.568;4.656;2023-07-22T14:49:41;21.69;57.24
68257;DHT22;55069;51.568;4.656;2023-07-22T14:52:06;21.42;58.24
68257;DHT22;55069;51.568;4.656;2023-07-22T14:54:33;21.41;59.04
68257;DHT22;55069;51.568;4.656;2023-07-22T14:56:58;21.50;57.93
68257;DHT22;55069;51.568;4.656;2023-07-22T14:59:24;21.94;57.79
68257;DHT22;55069;51.568;4.656;2023-07-22T15:01:49;21.83;57.28
68257;DHT22;55069;51.568;4.656;2023-07-22T15:04:15;22.18;57.03
68257;DHT22;55069;51.568;4.656;2023-07-22T15:06:40;22.14;57.56
68257;DHT22;55069;51.568;4.656;2023-07-22T15:09:06;21.89;56.35
68257;DHT22;55069;51.568;4.656;2023-07-22T15:11:36;22.07;56.32
68257;DHT22;55069;51.568;4.656;2023-07-22T15:14:05;22.51;56.99
68257;DHT22;55069;51.568;4.656;2023-07-22T15:16:31;22.49;55.95
68257;DHT22;55069;51.568;4.656;2023-07-22T15:18:56;22.31;56.34
68257;DHT22;55069;51.568;4.656;2023-07-22T15:21:22;22.44;55.83
68257;DHT22;55069;51.568;4.656;2023-07-22T15:23:48;22.30;56.05
68257;DHT22;55069;51.568;4.656;2023-07-22T15:26:13;22.65;57.34
68257;DHT22;55069;51.568;4.656;2023-07-22T15:28:38;22.85;55.69
68257;DHT22;55069;51.568;4.656;2023-07-22T15:31:06;22.65;55.67
68257;DHT22;55069;51.568;4.656;2023-07-22T15:33:31;22.61;56.01
68257;DHT22;55069;51.568;4.656;2023-07-22T15:35:58;22.41;55.90
68257;DHT22;55069;51.568;4.656;2023-07-22T15:38:23;22.61;55.86
68257;DHT22;55069;51.568;4.656;2023-07-22T15:40:50;22.37;56.14
68257;DHT22;55069;51.568;4.656;2023-07-22T15:43:15;22.47;56.13